createdAt,value
2022-12-22T00:00:29.208Z,51.88
2022-12-22T00:03:15.113Z,53.80
2022-12-22T00:06:00.744Z,63.30
2022-12-22T00:08:46.034Z,57.35
2022-12-22T00:11:31.831Z,52.90
2022-12-22T00:14:17.534Z,54.05
2022-12-22T00:17:02.919Z,54.58
2022-12-22T00:19:48.807Z,52.72
2022-12-22T00:22:39.050Z,55.42
2022-12-22T00:25:24.969Z,66.78
2022-12-22T00:28:10.516Z,73.93
2022-12-22T00:30:56.630Z,59.60
2022-12-22T00:33:41.947Z,51.63
2022-12-22T00:36:31.136Z,60.60
2022-12-22T00:39:19.365Z,63.97
2022-12-22T00:42:05.015Z,59.90
2022-12-22T00:44:50.468Z,59.63
2022-12-22T00:47:43.694Z,68.35
2022-12-22T00:50:29.559Z,58.30
2022-12-22T00:53:15.732Z,63.33
2022-12-22T00:56:01.047Z,60.88
2022-12-22T00:58:46.595Z,72.18
2022-12-22T01:01:32.277Z,69.90
2022-12-22T01:04:17.625Z,64.43
2022-12-22T01:07:03.143Z,59.45
2022-12-22T01:09:48.511Z,64.13
2022-12-22T01:12:39.209Z,70.55
2022-12-22T01:15:37.457Z,70.40
2022-12-22T01:18:23.083Z,57.33
2022-12-22T01:21:09.032Z,64.22
2022-12-22T01:23:54.581Z,60.90
2022-12-22T01:26:40.188Z,54.63
2022-12-22T01:29:25.756Z,59.88
2022-12-22T01:32:11.486Z,60.10
2022-12-22T01:34:57.657Z,56.15
2022-12-22T01:37:42.708Z,54.72
2022-12-22T01:40:33.584Z,55.78
2022-12-22T01:43:18.682Z,61.50
2022-12-22T01:46:04.223Z,53.55
2022-12-22T01:48:50.493Z,56.42
2022-12-22T01:51:44.531Z,59.83
2022-12-22T01:54:31.482Z,51.13
2022-12-22T01:57:16.972Z,58.40
2022-12-22T02:00:02.551Z,53.33
2022-12-22T02:02:50.907Z,50.95
2022-12-22T02:05:38.283Z,60.58
2022-12-22T02:08:36.212Z,50.25
2022-12-22T02:11:42.167Z,48.75
2022-12-22T02:14:49.429Z,53.88
2022-12-22T02:17:56.746Z,50.28
2022-12-22T02:21:02.416Z,56.58
2022-12-22T02:24:14.377Z,52.08
2022-12-22T02:27:09.841Z,45.15
2022-12-22T02:30:17.281Z,50.55
2022-12-22T02:33:09.549Z,47.75
2022-12-22T02:36:08.156Z,46.67
2022-12-22T02:39:02.526Z,44.10
2022-12-22T02:42:13.694Z,53.05
2022-12-22T02:45:14.250Z,48.65
2022-12-22T02:48:22.060Z,44.30
2022-12-22T02:51:18.989Z,52.28
2022-12-22T02:54:05.072Z,44.45
2022-12-22T02:56:50.171Z,48.28
2022-12-22T02:59:35.678Z,48.78
2022-12-22T03:02:21.210Z,49.55
2022-12-22T03:05:06.476Z,55.13
2022-12-22T03:07:52.002Z,55.08
2022-12-22T03:10:37.197Z,55.60
2022-12-22T03:13:22.827Z,52.60
2022-12-22T03:16:07.968Z,60.22
2022-12-22T03:18:53.372Z,55.85
2022-12-22T03:21:38.868Z,58.92
2022-12-22T03:24:24.303Z,62.85
2022-12-22T03:26:51.062Z,58.85
2022-12-22T03:29:17.770Z,67.32
2022-12-22T03:31:44.591Z,63.38
2022-12-22T03:34:11.325Z,70.65
2022-12-22T03:36:38.098Z,69.80
2022-12-22T03:39:04.935Z,86.65
2022-12-22T03:41:49.956Z,99.85
2022-12-22T03:44:35.528Z,77.60
2022-12-22T03:47:02.203Z,77.28
2022-12-22T03:49:28.949Z,78.70
2022-12-22T03:51:55.762Z,96.45
2022-12-22T03:54:25.103Z,102.22
2022-12-22T03:56:53.072Z,91.63
2022-12-22T03:59:20.190Z,121.47
2022-12-22T04:01:53.396Z,136.13
2022-12-22T04:04:22.591Z,155.38
2022-12-22T04:06:49.224Z,125.50
2022-12-22T04:09:16.178Z,131.52
2022-12-22T04:12:01.338Z,157.50
2022-12-22T04:14:33.840Z,113.38
2022-12-22T04:17:02.276Z,87.50
2022-12-22T04:19:29.233Z,135.55
2022-12-22T04:21:55.854Z,107.28
2022-12-22T04:24:22.703Z,120.97
2022-12-22T04:26:50.115Z,80.05
2022-12-22T04:29:16.968Z,76.32
2022-12-22T04:31:43.917Z,79.63
2022-12-22T04:34:10.657Z,67.15
2022-12-22T04:36:37.293Z,74.90
2022-12-22T04:39:04.178Z,73.68
2022-12-22T04:41:30.828Z,70.15
2022-12-22T04:43:57.503Z,71.88
2022-12-22T04:46:24.242Z,63.65
2022-12-22T04:48:56.018Z,64.70
2022-12-22T04:51:26.303Z,63.95
2022-12-22T04:53:53.022Z,61.40
2022-12-22T04:56:19.680Z,70.22
2022-12-22T04:58:46.412Z,68.75
2022-12-22T05:01:15.903Z,68.82
2022-12-22T05:03:43.059Z,61.65
2022-12-22T05:06:10.491Z,63.40
2022-12-22T05:08:37.415Z,62.58
2022-12-22T05:11:04.228Z,61.83
2022-12-22T05:13:32.268Z,66.45
2022-12-22T05:16:25.372Z,69.10
2022-12-22T05:18:52.091Z,67.90
2022-12-22T05:21:22.205Z,66.40
2022-12-22T05:23:49.774Z,60.55
2022-12-22T05:26:17.821Z,63.30
2022-12-22T05:28:46.642Z,61.25
2022-12-22T05:31:22.387Z,67.55
2022-12-22T05:33:50.141Z,67.50
2022-12-22T05:36:17.806Z,72.43
2022-12-22T05:38:44.736Z,66.93
2022-12-22T05:41:11.490Z,74.18
2022-12-22T05:43:38.551Z,66.50
2022-12-22T05:46:08.763Z,73.53
2022-12-22T05:48:39.015Z,69.22
2022-12-22T05:51:07.641Z,67.10
2022-12-22T05:53:34.303Z,68.78
2022-12-22T05:56:01.038Z,59.17
2022-12-22T05:58:27.815Z,63.58
2022-12-22T06:00:58.160Z,60.30
2022-12-22T06:03:25.958Z,61.15
2022-12-22T06:05:53.278Z,52.35
2022-12-22T06:08:20.172Z,52.35
2022-12-22T06:10:46.856Z,53.90
2022-12-22T06:13:13.539Z,57.63
2022-12-22T06:15:40.189Z,50.58
2022-12-22T06:18:06.957Z,55.33
2022-12-22T06:20:33.613Z,47.63
2022-12-22T06:23:00.653Z,50.22
2022-12-22T06:25:27.312Z,55.30
2022-12-22T06:27:53.928Z,60.17
2022-12-22T06:30:20.550Z,59.15
2022-12-22T06:32:47.150Z,47.78
2022-12-22T06:35:14.380Z,49.28
2022-12-22T06:37:41.037Z,52.40
2022-12-22T06:40:09.223Z,56.72
2022-12-22T06:42:54.590Z,57.95
2022-12-22T06:45:21.522Z,48.70
2022-12-22T06:47:48.104Z,60.17
2022-12-22T06:50:14.935Z,48.40
2022-12-22T06:52:41.630Z,57.95
2022-12-22T06:55:11.485Z,53.22
2022-12-22T06:57:38.570Z,56.67
2022-12-22T07:00:05.936Z,58.95
2022-12-22T07:02:32.739Z,60.53
2022-12-22T07:04:59.566Z,63.75
2022-12-22T07:07:26.306Z,62.38
2022-12-22T07:09:53.071Z,70.28
2022-12-22T07:12:19.668Z,68.93
2022-12-22T07:14:46.218Z,65.20
2022-12-22T07:17:12.896Z,68.78
2022-12-22T07:19:39.492Z,71.25
2022-12-22T07:22:06.106Z,79.32
2022-12-22T07:24:33.221Z,82.78
2022-12-22T07:27:00.233Z,69.97
2022-12-22T07:29:26.929Z,74.65
2022-12-22T07:31:53.674Z,72.75
2022-12-22T07:34:20.556Z,85.18
2022-12-22T07:36:47.236Z,69.40
2022-12-22T07:39:13.944Z,73.10
2022-12-22T07:41:59.149Z,68.68
2022-12-22T07:44:25.817Z,70.93
2022-12-22T07:46:52.906Z,67.35
2022-12-22T07:49:38.439Z,68.57
2022-12-22T07:52:05.724Z,76.95
2022-12-22T07:54:41.104Z,71.72
2022-12-22T07:57:08.248Z,77.68
2022-12-22T07:59:35.004Z,76.70
2022-12-22T08:02:01.786Z,76.32
2022-12-22T08:04:28.777Z,84.25
2022-12-22T08:06:55.794Z,80.90
2022-12-22T08:09:23.026Z,80.60
2022-12-22T08:11:50.377Z,80.68
2022-12-22T08:14:17.240Z,101.53
2022-12-22T08:16:44.003Z,90.20
2022-12-22T08:19:10.934Z,90.18
2022-12-22T08:21:37.799Z,89.53
2022-12-22T08:24:04.987Z,82.57
2022-12-22T08:26:38.275Z,92.43
2022-12-22T08:29:15.102Z,89.55
2022-12-22T08:31:42.511Z,85.68
2022-12-22T08:34:12.983Z,86.85
2022-12-22T08:36:43.660Z,87.97
2022-12-22T08:39:12.324Z,87.93
2022-12-22T08:41:51.175Z,92.00
2022-12-22T08:44:23.148Z,86.20
2022-12-22T08:46:51.013Z,92.72
2022-12-22T08:49:18.160Z,87.82
2022-12-22T08:51:45.824Z,80.63
2022-12-22T08:54:13.230Z,81.65
2022-12-22T08:56:40.230Z,81.43
2022-12-22T08:59:08.104Z,79.55
2022-12-22T09:01:38.518Z,77.07
2022-12-22T09:04:07.011Z,80.53
2022-12-22T09:06:40.567Z,73.90
2022-12-22T09:09:09.688Z,72.50
2022-12-22T09:11:36.394Z,77.38
2022-12-22T09:14:03.948Z,76.90
2022-12-22T09:16:32.734Z,77.80
2022-12-22T09:19:00.248Z,75.50
2022-12-22T09:21:27.222Z,75.05
2022-12-22T09:23:55.087Z,70.40
2022-12-22T09:26:23.237Z,73.75
2022-12-22T09:28:51.062Z,74.82
2022-12-22T09:31:19.641Z,74.78
2022-12-22T09:33:46.522Z,75.13
2022-12-22T09:36:16.085Z,73.50
2022-12-22T09:38:43.248Z,69.85
2022-12-22T09:41:15.409Z,65.13
2022-12-22T09:43:42.612Z,67.55
2022-12-22T09:46:23.616Z,65.78
2022-12-22T09:48:52.484Z,62.75
2022-12-22T09:51:24.655Z,63.17
2022-12-22T09:54:02.764Z,60.28
2022-12-22T09:56:30.311Z,58.08
2022-12-22T09:58:58.213Z,55.90
2022-12-22T10:01:52.755Z,55.15
2022-12-22T10:05:04.745Z,52.22
2022-12-22T10:07:40.059Z,50.13
2022-12-22T10:10:07.813Z,52.20
2022-12-22T10:12:34.590Z,50.85
2022-12-22T10:15:01.353Z,53.28
2022-12-22T10:17:33.589Z,48.33
2022-12-22T10:20:07.900Z,46.80
2022-12-22T10:23:00.796Z,42.08
2022-12-22T10:25:45.263Z,38.30
2022-12-22T10:28:23.151Z,34.80
2022-12-22T10:30:50.393Z,32.45
2022-12-22T10:33:18.769Z,31.30
2022-12-22T10:35:57.418Z,27.77
2022-12-22T10:38:29.650Z,25.58
2022-12-22T10:41:02.353Z,22.15
2022-12-22T10:43:37.490Z,20.98
2022-12-22T10:46:05.011Z,20.95
2022-12-22T10:48:36.273Z,20.08
2022-12-22T10:51:06.205Z,21.20
2022-12-22T10:53:44.988Z,21.30
2022-12-22T10:56:31.201Z,22.25
2022-12-22T10:59:18.878Z,20.80
2022-12-22T11:01:46.391Z,21.73
2022-12-22T11:04:27.620Z,22.55
2022-12-22T11:06:58.599Z,23.50
2022-12-22T11:09:35.318Z,24.45
2022-12-22T11:12:13.381Z,22.92
2022-12-22T11:14:46.031Z,25.48
2022-12-22T11:17:50.306Z,25.25
2022-12-22T11:20:22.816Z,24.75
2022-12-22T11:23:15.455Z,22.17
2022-12-22T11:26:20.006Z,22.05
2022-12-22T11:29:24.369Z,25.52
2022-12-22T11:32:14.205Z,27.33
2022-12-22T11:34:59.607Z,24.38
2022-12-22T11:37:50.425Z,22.35
2022-12-22T11:40:33.487Z,20.45
2022-12-22T11:43:25.169Z,22.05
2022-12-22T11:46:12.037Z,22.13
2022-12-22T11:49:14.213Z,21.48
2022-12-22T11:52:07.213Z,23.02
2022-12-22T11:54:56.713Z,19.88
2022-12-22T11:58:00.430Z,17.77
2022-12-22T12:01:04.216Z,20.48
2022-12-22T12:03:55.710Z,20.70
2022-12-22T12:06:28.295Z,17.13
2022-12-22T12:08:54.837Z,17.75
2022-12-22T12:11:39.064Z,22.23
2022-12-22T12:14:31.724Z,19.13
2022-12-22T12:17:36.419Z,20.08
2022-12-22T12:20:22.308Z,21.33
2022-12-22T12:23:27.132Z,20.67
2022-12-22T12:26:12.860Z,19.88
2022-12-22T12:28:48.392Z,21.65
2022-12-22T12:31:25.956Z,18.35
2022-12-22T12:33:56.058Z,16.17
2022-12-22T12:37:00.450Z,20.02
2022-12-22T12:39:37.634Z,14.70
2022-12-22T12:42:36.925Z,17.40
2022-12-22T12:48:49.586Z,12.63
2022-12-22T12:51:50.952Z,13.35
2022-12-22T12:54:38.206Z,9.00
2022-12-22T12:57:12.709Z,14.68
2022-12-22T12:59:42.619Z,12.73
2022-12-22T13:02:28.190Z,14.13
2022-12-22T13:05:13.331Z,11.10
2022-12-22T13:08:08.021Z,11.60
2022-12-22T13:10:38.632Z,14.40
2022-12-22T13:13:05.726Z,12.32
2022-12-22T13:15:38.521Z,10.85
2022-12-22T13:18:26.661Z,10.98
2022-12-22T13:21:26.173Z,10.82
2022-12-22T13:24:24.701Z,12.82
2022-12-22T13:26:57.110Z,10.35
2022-12-22T13:29:46.467Z,12.27
2022-12-22T13:32:29.819Z,9.40
2022-12-22T13:37:51.476Z,9.73
2022-12-22T13:40:21.744Z,8.77
2022-12-22T13:43:02.415Z,10.38
2022-12-22T13:45:39.333Z,11.00
2022-12-22T13:48:15.792Z,11.00
2022-12-22T13:50:49.820Z,9.70
2022-12-22T13:56:34.255Z,11.23
2022-12-22T13:59:02.683Z,13.25
2022-12-22T14:01:30.874Z,11.10
2022-12-22T14:04:11.559Z,8.43
2022-12-22T14:06:40.465Z,8.55
2022-12-22T14:09:10.049Z,11.07
2022-12-22T14:11:36.832Z,12.18
2022-12-22T14:14:10.810Z,8.50
2022-12-22T14:16:45.400Z,10.32
2022-12-22T14:19:15.517Z,13.45
2022-12-22T14:21:48.985Z,10.90
2022-12-22T14:24:24.397Z,14.05
2022-12-22T14:26:53.266Z,8.02
2022-12-22T14:29:25.888Z,12.23
2022-12-22T14:31:56.391Z,11.30
2022-12-22T14:34:32.613Z,11.02
2022-12-22T14:36:59.983Z,12.27
2022-12-22T14:39:30.978Z,12.43
2022-12-22T14:42:00.997Z,10.88
2022-12-22T14:44:42.166Z,13.20
2022-12-22T14:47:12.111Z,14.38
2022-12-22T14:49:47.014Z,12.32
2022-12-22T14:52:33.245Z,10.77
2022-12-22T14:55:00.630Z,13.80
2022-12-22T14:57:37.886Z,14.13
2022-12-22T15:00:07.683Z,12.27
2022-12-22T15:02:40.803Z,14.32
2022-12-22T15:05:27.669Z,11.68
2022-12-22T15:08:06.575Z,15.77
2022-12-22T15:10:41.756Z,21.52
2022-12-22T15:13:18.759Z,12.43
2022-12-22T15:15:45.502Z,18.27
2022-12-22T15:18:14.500Z,16.55
2022-12-22T15:20:41.745Z,15.80
2022-12-22T15:23:18.310Z,14.68
2022-12-22T15:25:45.585Z,16.27
2022-12-22T15:28:12.355Z,14.68
2022-12-22T15:30:39.258Z,23.00
2022-12-22T15:33:15.191Z,18.42
2022-12-22T15:35:42.798Z,14.20
2022-12-22T15:38:19.410Z,13.60
2022-12-22T15:40:46.011Z,12.90
2022-12-22T15:43:36.813Z,14.38
2022-12-22T15:46:01.723Z,19.70
2022-12-22T15:48:31.721Z,15.75
2022-12-22T15:50:59.045Z,16.30
2022-12-22T15:53:25.779Z,13.15
2022-12-22T15:55:54.691Z,16.35
2022-12-22T15:58:28.739Z,16.02
2022-12-22T16:00:55.829Z,17.75
2022-12-22T16:03:22.686Z,17.70
2022-12-22T16:05:49.610Z,15.07
2022-12-22T16:08:19.946Z,14.98
2022-12-22T16:10:46.899Z,15.15
2022-12-22T16:13:15.496Z,14.93
2022-12-22T16:15:43.046Z,14.40
2022-12-22T16:18:13.019Z,16.40
2022-12-22T16:20:42.926Z,13.18
2022-12-22T16:23:22.859Z,15.10
2022-12-22T16:25:55.498Z,18.33
2022-12-22T16:28:25.657Z,15.38
2022-12-22T16:30:52.443Z,13.30
2022-12-22T16:33:19.749Z,15.68
2022-12-22T16:35:46.485Z,15.02
2022-12-22T16:38:18.664Z,12.05
2022-12-22T16:40:49.455Z,15.50
2022-12-22T16:46:14.460Z,16.05
2022-12-22T16:48:47.443Z,15.75
2022-12-22T16:51:40.359Z,14.77
2022-12-22T16:54:07.276Z,15.23
2022-12-22T16:56:34.869Z,14.73
2022-12-22T16:59:04.495Z,14.73
2022-12-22T17:01:38.690Z,12.45
2022-12-22T17:04:13.685Z,15.95
2022-12-22T17:06:41.372Z,14.35
2022-12-22T17:09:27.649Z,15.52
2022-12-22T17:11:55.330Z,19.25
2022-12-22T17:14:42.457Z,22.33
2022-12-22T17:17:17.558Z,13.00
2022-12-22T17:19:44.922Z,14.95
2022-12-22T17:22:30.496Z,13.07
2022-12-22T17:25:01.708Z,15.85
2022-12-22T17:27:41.396Z,14.27
2022-12-22T17:30:18.245Z,8.85
2022-12-22T17:32:45.469Z,13.10
2022-12-22T17:35:13.833Z,11.98
2022-12-22T17:37:41.423Z,12.00
2022-12-22T17:40:11.811Z,11.82
2022-12-22T17:42:38.521Z,19.50
2022-12-22T17:45:12.314Z,15.02
2022-12-22T17:47:42.944Z,12.77
2022-12-22T17:50:21.045Z,14.93
2022-12-22T17:52:49.050Z,14.70
2022-12-22T17:56:05.856Z,12.90
2022-12-22T17:58:16.923Z,15.57
2022-12-22T18:00:44.269Z,12.82
2022-12-22T18:03:14.005Z,14.43
2022-12-22T18:05:44.380Z,13.82
2022-12-22T18:08:20.713Z,12.18
2022-12-22T18:10:48.394Z,12.93
2022-12-22T18:13:25.165Z,13.40
2022-12-22T18:15:53.173Z,15.60
2022-12-22T18:18:21.590Z,13.27
2022-12-22T18:21:07.354Z,16.10
2022-12-22T18:23:36.561Z,14.88
2022-12-22T18:26:05.963Z,17.38
2022-12-22T18:28:32.648Z,13.23
2022-12-22T18:30:59.346Z,15.57
2022-12-22T18:33:26.137Z,16.17
2022-12-22T18:35:52.925Z,17.42
2022-12-22T18:38:32.296Z,18.23
2022-12-22T18:40:59.426Z,19.13
2022-12-22T18:43:26.429Z,18.77
2022-12-22T18:45:53.089Z,19.77
2022-12-22T18:48:19.750Z,18.30
2022-12-22T18:50:46.415Z,18.75
2022-12-22T18:53:26.707Z,19.05
2022-12-22T18:55:54.085Z,19.77
2022-12-22T18:58:20.866Z,20.00
2022-12-22T19:00:48.245Z,18.50
2022-12-22T19:03:28.967Z,19.88
2022-12-22T19:05:55.997Z,21.48
2022-12-22T19:08:26.045Z,19.40
2022-12-22T19:11:03.631Z,20.73
2022-12-22T19:13:32.464Z,16.55
2022-12-22T19:15:59.703Z,21.98
2022-12-22T19:18:27.730Z,20.08
2022-12-22T19:20:55.931Z,21.00
2022-12-22T19:23:24.911Z,23.35
2022-12-22T19:26:08.436Z,23.45
2022-12-22T19:28:44.597Z,22.27
2022-12-22T19:31:21.841Z,19.27
2022-12-22T19:33:49.205Z,18.58
2022-12-22T19:36:19.637Z,22.55
2022-12-22T19:38:50.525Z,21.92
2022-12-22T19:41:33.479Z,27.70
2022-12-22T19:44:00.938Z,33.78
2022-12-22T19:46:32.497Z,22.15
2022-12-22T19:48:59.557Z,31.05
2022-12-22T19:51:26.258Z,27.70
2022-12-22T19:53:52.939Z,17.75
2022-12-22T19:56:31.893Z,22.00
2022-12-22T19:59:00.858Z,20.75
2022-12-22T20:01:27.639Z,22.83
2022-12-22T20:03:55.889Z,23.60
2022-12-22T20:06:22.683Z,21.63
2022-12-22T20:08:49.413Z,26.83
2022-12-22T20:11:19.698Z,23.67
2022-12-22T20:13:47.239Z,23.52
2022-12-22T20:16:16.423Z,26.75
2022-12-22T20:18:44.407Z,29.73
2022-12-22T20:21:37.563Z,27.42
2022-12-22T20:24:05.417Z,25.90
2022-12-22T20:26:32.472Z,28.42
2022-12-22T20:28:59.198Z,27.35
2022-12-22T20:31:26.308Z,27.48
2022-12-22T20:33:54.976Z,29.75
2022-12-22T20:36:26.523Z,26.17
2022-12-22T20:38:55.107Z,29.17
2022-12-22T20:41:22.270Z,28.77
2022-12-22T20:43:49.608Z,29.80
2022-12-22T20:46:26.898Z,29.10
2022-12-22T20:48:59.568Z,29.48
2022-12-22T20:51:29.485Z,30.80
2022-12-22T20:54:00.821Z,32.13
2022-12-22T20:59:22.646Z,32.95
2022-12-22T21:01:51.719Z,31.83
2022-12-22T21:04:18.930Z,32.35
2022-12-22T21:06:56.601Z,32.45
2022-12-22T21:09:23.954Z,32.22
2022-12-22T21:11:50.552Z,32.83
2022-12-22T21:14:17.460Z,38.38
2022-12-22T21:16:44.445Z,36.13
2022-12-22T21:19:18.682Z,35.42
2022-12-22T21:21:45.611Z,37.63
2022-12-22T21:24:12.253Z,33.20
2022-12-22T21:26:52.476Z,32.70
2022-12-22T21:29:22.191Z,32.40
2022-12-22T21:31:48.889Z,31.60
2022-12-22T21:34:15.674Z,32.83
2022-12-22T21:36:45.063Z,33.03
2022-12-22T21:39:31.335Z,31.90
2022-12-22T21:42:00.725Z,35.63
2022-12-22T21:44:29.028Z,28.92
2022-12-22T21:46:56.962Z,29.95
2022-12-22T21:49:25.996Z,53.95
2022-12-22T21:51:53.584Z,42.72
2022-12-22T21:54:22.020Z,58.10
2022-12-22T21:56:57.761Z,42.95
2022-12-22T21:59:24.400Z,40.33
2022-12-22T22:01:55.580Z,38.28
2022-12-22T22:04:23.021Z,35.85
2022-12-22T22:06:49.729Z,37.88
2022-12-22T22:09:16.401Z,39.45
2022-12-22T22:12:01.926Z,33.28
2022-12-22T22:14:28.616Z,35.95
2022-12-22T22:16:55.250Z,39.42
2022-12-22T22:19:22.009Z,34.90
2022-12-22T22:21:48.750Z,36.20
2022-12-22T22:24:15.478Z,37.65
2022-12-22T22:26:45.677Z,36.85
2022-12-22T22:29:12.423Z,36.17
2022-12-22T22:31:40.778Z,39.60
2022-12-22T22:34:07.487Z,34.95
2022-12-22T22:36:34.187Z,36.15
2022-12-22T22:39:00.748Z,36.63
2022-12-22T22:41:29.231Z,38.45
2022-12-22T22:43:55.963Z,36.42
2022-12-22T22:46:22.724Z,38.15
2022-12-22T22:48:49.428Z,39.25
2022-12-22T22:51:16.098Z,36.72
2022-12-22T22:53:42.666Z,38.42
2022-12-22T22:56:09.353Z,41.22
2022-12-22T22:58:35.913Z,37.15
2022-12-22T23:01:10.364Z,43.60
2022-12-22T23:03:37.965Z,39.03
2022-12-22T23:06:10.437Z,38.78
2022-12-22T23:08:37.249Z,41.50
2022-12-22T23:11:04.795Z,39.22
2022-12-22T23:13:31.719Z,43.83
2022-12-22T23:16:01.082Z,37.05
2022-12-22T23:18:28.833Z,40.05
2022-12-22T23:21:02.857Z,37.60
2022-12-22T23:23:30.196Z,38.65
2022-12-22T23:25:57.604Z,37.38
2022-12-22T23:28:24.637Z,40.03
2022-12-22T23:30:52.771Z,39.28
2022-12-22T23:33:20.609Z,42.92
2022-12-22T23:35:49.482Z,40.15
2022-12-22T23:38:17.770Z,40.85
2022-12-22T23:40:53.687Z,37.45
2022-12-22T23:43:21.725Z,38.40
2022-12-22T23:45:48.604Z,39.03
2022-12-22T23:48:15.312Z,36.53
2022-12-22T23:50:45.061Z,40.45
2022-12-22T23:53:11.773Z,37.97
2022-12-22T23:55:42.620Z,38.63
2022-12-22T23:58:09.244Z,39.78
